Chhatrapati Shivaji International Airport
VABB : now visible

Airfield :











YOU CAN JOIN US ON...

 
LOGIN :

Register | Disclaimer

   EN    FR    IT 

 









Legend :    VFR   Marginal VFR   IFR   Intensive IFR   Very Intensive IFR
Visi :
Ceiling :
>= 8 km
>= 3000ft
5 to 8 km
1000 to 3000 ft
1500m to 5 km
500 to 1000 ft
800 to 1500m
200 to 500 ft
< 800m
< 200 ft
Symbols :   Thunderstorms  Fog  Heavy snow  Heavy precipitations  Wind > 20 kt







- Airport Elevation : 37 ft
- IATA code : BOM


VABB - Chhatrapati Shivaji International

CURRENT METAR :
  • 210130Z 00000KT 2500 HZ SCT100 24/19 Q1016 NOSIG

EXPIRED METARs :
  • 210100Z 00000KT 2200 HZ SCT100 24/19 Q1016 NOSIG
  • 210030Z 01005KT 2100 HZ NSC 24/21 Q1016 NOSIG
  • 210000Z 33003KT 2100 HZ NSC 24/21 Q1015 NOSIG
  • 202330Z 01003KT 2100 HZ NSC 24/21 Q1015 NOSIG
  • 202300Z 30003KT 2100 HZ NSC 24/21 Q1015 NOSIG

TAF TAF VABB
Valid from the 21 at 00:00 until the 22 at 06:00 UTC


202300Z 2100/2206 VRB05KT 2500 HZ NSC
BECMG 2106/2108 28010KT 3000 FU
BECMG 2109/2111 4000 FU
BECMG 2115/2117 34005KT 3000 HZ
BECMG 2118/2120 VRB05KT
BECMG 2200/2202 2500 HZ
VABF FIR / Asia



MET'MAP, your aeronautical weather chart ! - Copyright ORBIFLY December 2007 - Disclaimer

ORBIFLY MET'MAP TEAM :

Programming & Development : Alexandra Zaïnal
Concept & Development : Baudouin d'Aumeries
Co-Development & Prog : Marc-Olivier Méhu
Technical & hardware support : Manuel Goepfert

Contact : metmap@orbifly.com




SOURCES & CREDITS :

   NOAA       Earth
Advisory